01:15
Airports
History
Links
Donate
Help keep this website running!
PayPal
Bitcoin
This page is community maintained. The information is intended for PC simulator navigation or reference.
Always use approved charts for navigation.
SBPB
PREFEITO DOUTOR JOAO SILVA FILHO
PREFEITO DOUTOR JOAO SILVA FILHO (SBPB)
ParnaĆ­ba, Piaui, Brazil (64200000)
(C)
Lat/Lng:2° 53' 37.49" S / 41° 43' 55.06" W
-2.893748 / -41.731962
Elevation:16'ft / 5mMSL
ID / ICAO:SBPB
Runways:1
Longest:09-27
Asphalt 2,108m / 6,917ft
Controlled:Yes
METAR21:45 GMT 2018-02-17
Altimeter: 29.83
Visibility: 6.2 statute miles
Wind: 8 knots (from 060°)
Temp: 27°c / 81°f
Humidity: 88.8%

METAR: SBPB 172145Z 06008KT 9999 SCT015 BKN090 27/25 Q1010

(Powered by phpweather)
Airport Radio Frequencies
Tower: 126.6
Runway 09 / 27
Dimensions:2108.2 x 45.1m 6917' x 148'ft
Surface:Asphalt
Edge Lights:Low intensity
Runway 09 [A]Runway 27 [B]
Heading:073°TH 253°TH
Lat:
Lng:
2° 53' 47.14"S
41° 44' 27.75"W
2° 53' 27.84"S
41° 43' 22.37"W
User Notes and Comments
2° 53' 37.49" S / 41° 43' 55.06" W
Distance To
Airport ID:
Nearby Airports
(U) CAMOCIM 60.3 NM
SB11 E 90°
(U) Camocim 60.4 NM
SNWC E 90°
(C) Brejo 92.9 NM
SNRJ SW 234°
(C) Sobral 110.5 NM
SNOB ESE 119°
(C) Urbano Santos 120.7 NM
SNUD WSW 252°
(U) Dr. Almir Lopes de Oliveira Melo 129.1 NM
SIDB SW 222°
(U) Campo Maior 140.3 NM
SDYX SSW 195°
VFR Chart
Flight Planning at SkyVector.com